Hauptseite
METAR-TAF:

METAR-TAF

Flughäfen :

Militärflugplatz Piacenza

Piacenza, Italien

Breite: 44-55N, Länge: 009-44E, Höhe: 134 m

Beobachtung

Neuester Wetterbericht von vor 2 Stunden und 37 Minuten, um 17:55 UTC
Wind 3 kt aus Südwest
Temperatur -1°C
Luftfeuchtigkeit 100%
Luftdruck 1019 hPa
Sichtweite: 5000 m
feuchter Dunst

METAR: LIMS 151755Z 23003KT 5000 BR NSC M01/M01 Q1019 RMK SKC VIS MIN 5000 WIND THR30 21002KT WHT

Zeit: 21:32 (20:32 UTC)


TAF: fehlend

Wetterbeobachtungen und Prognosen von mehr als 4000 Flughäfen (METAR und TAF Bericht).

Die verfügbaren Stationen werden durch gelbe und rote Markierungen auf der Karte dargestellt.

Führen Sie die Maus auf sie, um den Namen der Station zu sehen.

Darauf klicken, um die Beobachtung von Wetterbeobachtungen und Prognosen zu sehen.

Um die Karte zu ändern : klicken Sie auf den grünen Tasten mit einem schwarzen Kreuz Zum Vergrößern, auf den grünen Button mit einem Gedankenstrich zu verkleinern, oder auf die grünen Pfeile für benachbarte Karten.


METAR-TAF: